sensor_id;sensor_type;location;lat;lon;timestamp;pressure;altitude;pressure_sealevel;temperature;humidity
9439;BME280;5176;42.622;25.386;2023-02-23T00:01:27;97120.72;;;8.47;69.64
9439;BME280;5176;42.622;25.386;2023-02-23T00:03:58;97121.06;;;8.57;68.59
9439;BME280;5176;42.622;25.386;2023-02-23T00:06:28;97124.00;;;8.51;67.58
9439;BME280;5176;42.622;25.386;2023-02-23T00:08:58;97124.25;;;8.46;66.98
9439;BME280;5176;42.622;25.386;2023-02-23T00:11:30;97110.44;;;8.28;66.66
9439;BME280;5176;42.622;25.386;2023-02-23T00:13:59;97084.06;;;8.03;66.54
9439;BME280;5176;42.622;25.386;2023-02-23T00:16:29;97121.25;;;8.06;67.14
9439;BME280;5176;42.622;25.386;2023-02-23T00:18:58;97124.63;;;7.92;67.42
9439;BME280;5176;42.622;25.386;2023-02-23T00:21:29;97124.63;;;7.77;67.52
9439;BME280;5176;42.622;25.386;2023-02-23T00:24:00;97121.50;;;7.70;67.55
9439;BME280;5176;42.622;25.386;2023-02-23T00:26:32;97118.72;;;7.57;67.84
9439;BME280;5176;42.622;25.386;2023-02-23T00:29:04;97120.72;;;7.52;67.98
9439;BME280;5176;42.622;25.386;2023-02-23T00:31:34;97128.63;;;7.51;68.39
9439;BME280;5176;42.622;25.386;2023-02-23T00:34:05;97119.13;;;7.50;70.18
9439;BME280;5176;42.622;25.386;2023-02-23T00:36:34;97130.94;;;7.57;70.22
9439;BME280;5176;42.622;25.386;2023-02-23T00:39:07;97121.56;;;7.53;69.64
9439;BME280;5176;42.622;25.386;2023-02-23T00:41:47;97125.00;;;7.53;70.09
9439;BME280;5176;42.622;25.386;2023-02-23T00:44:16;97123.25;;;7.54;70.61
9439;BME280;5176;42.622;25.386;2023-02-23T00:46:45;97123.50;;;7.49;70.93
9439;BME280;5176;42.622;25.386;2023-02-23T00:49:17;97125.66;;;7.41;70.00
9439;BME280;5176;42.622;25.386;2023-02-23T00:51:47;97122.28;;;7.23;71.05
9439;BME280;5176;42.622;25.386;2023-02-23T00:54:20;97125.09;;;7.19;71.86
9439;BME280;5176;42.622;25.386;2023-02-23T00:56:51;97123.03;;;7.08;72.93
9439;BME280;5176;42.622;25.386;2023-02-23T00:59:19;97093.31;;;6.95;73.10
9439;BME280;5176;42.622;25.386;2023-02-23T01:01:48;97124.28;;;7.01;72.74
9439;BME280;5176;42.622;25.386;2023-02-23T01:04:18;97117.25;;;7.03;73.27
9439;BME280;5176;42.622;25.386;2023-02-23T01:06:49;97118.84;;;7.05;72.44
9439;BME280;5176;42.622;25.386;2023-02-23T01:09:17;97119.91;;;7.01;72.97
9439;BME280;5176;42.622;25.386;2023-02-23T01:11:56;97108.59;;;6.85;72.99
9439;BME280;5176;42.622;25.386;2023-02-23T01:14:28;97118.53;;;6.94;73.50
9439;BME280;5176;42.622;25.386;2023-02-23T01:16:57;97120.56;;;6.89;73.80
9439;BME280;5176;42.622;25.386;2023-02-23T01:19:26;97118.84;;;6.88;73.51
9439;BME280;5176;42.622;25.386;2023-02-23T01:21:55;97117.47;;;6.81;73.94
9439;BME280;5176;42.622;25.386;2023-02-23T01:24:24;97114.22;;;6.77;75.23
9439;BME280;5176;42.622;25.386;2023-02-23T01:26:54;97086.56;;;6.58;75.04
9439;BME280;5176;42.622;25.386;2023-02-23T01:29:24;97114.22;;;6.77;74.60
9439;BME280;5176;42.622;25.386;2023-02-23T01:31:53;97123.69;;;6.78;74.72
9439;BME280;5176;42.622;25.386;2023-02-23T01:34:22;97117.78;;;6.75;75.04
9439;BME280;5176;42.622;25.386;2023-02-23T01:36:51;97115.28;;;6.73;74.99
9439;BME280;5176;42.622;25.386;2023-02-23T01:39:20;97123.94;;;6.74;75.07
9439;BME280;5176;42.622;25.386;2023-02-23T01:41:49;97122.25;;;6.73;74.49
9439;BME280;5176;42.622;25.386;2023-02-23T01:47:27;97127.09;;;6.63;78.67
9439;BME280;5176;42.622;25.386;2023-02-23T01:49:56;97121.94;;;6.62;78.93
9439;BME280;5176;42.622;25.386;2023-02-23T01:52:26;97120.53;;;6.54;78.95
9439;BME280;5176;42.622;25.386;2023-02-23T01:54:55;97119.97;;;6.49;78.66
9439;BME280;5176;42.622;25.386;2023-02-23T01:57:24;97127.06;;;6.46;79.23
9439;BME280;5176;42.622;25.386;2023-02-23T01:59:53;97126.13;;;6.47;78.46
9439;BME280;5176;42.622;25.386;2023-02-23T02:02:26;97130.13;;;6.37;78.71
9439;BME280;5176;42.622;25.386;2023-02-23T02:05:01;97110.44;;;6.31;78.48
9439;BME280;5176;42.622;25.386;2023-02-23T02:07:34;97122.53;;;6.32;77.85
9439;BME280;5176;42.622;25.386;2023-02-23T02:10:06;97127.41;;;6.21;78.20
9439;BME280;5176;42.622;25.386;2023-02-23T02:12:55;97134.38;;;6.20;78.51
9439;BME280;5176;42.622;25.386;2023-02-23T02:15:27;97133.97;;;6.11;78.47
9439;BME280;5176;42.622;25.386;2023-02-23T02:18:06;97135.03;;;6.07;78.19
9439;BME280;5176;42.622;25.386;2023-02-23T02:24:25;97135.47;;;5.97;79.75
9439;BME280;5176;42.622;25.386;2023-02-23T02:27:09;97127.66;;;5.79;80.15
9439;BME280;5176;42.622;25.386;2023-02-23T02:30:24;97139.81;;;5.59;81.57
9439;BME280;5176;42.622;25.386;2023-02-23T02:33:35;97133.63;;;5.62;82.71
9439;BME280;5176;42.622;25.386;2023-02-23T02:39:27;97118.03;;;5.43;83.87
9439;BME280;5176;42.622;25.386;2023-02-23T02:42:11;97134.75;;;5.56;84.20
9439;BME280;5176;42.622;25.386;2023-02-23T02:44:51;97132.94;;;5.58;84.92
9439;BME280;5176;42.622;25.386;2023-02-23T02:47:26;97137.09;;;5.62;84.16
9439;BME280;5176;42.622;25.386;2023-02-23T02:50:02;97124.75;;;5.47;85.15
9439;BME280;5176;42.622;25.386;2023-02-23T02:52:37;97146.47;;;5.46;85.90
9439;BME280;5176;42.622;25.386;2023-02-23T02:55:13;97136.91;;;5.46;85.90
9439;BME280;5176;42.622;25.386;2023-02-23T02:57:44;97140.72;;;5.58;85.38
9439;BME280;5176;42.622;25.386;2023-02-23T03:00:18;97146.66;;;5.62;84.06
9439;BME280;5176;42.622;25.386;2023-02-23T03:03:04;97142.84;;;5.69;84.07
9439;BME280;5176;42.622;25.386;2023-02-23T03:05:51;97144.28;;;5.74;83.16
9439;BME280;5176;42.622;25.386;2023-02-23T03:08:45;97150.22;;;5.78;84.08
9439;BME280;5176;42.622;25.386;2023-02-23T03:11:38;97147.81;;;5.73;83.95
9439;BME280;5176;42.622;25.386;2023-02-23T03:14:31;97156.63;;;5.71;83.35
9439;BME280;5176;42.622;25.386;2023-02-23T03:17:26;97144.59;;;5.68;83.93
9439;BME280;5176;42.622;25.386;2023-02-23T03:20:21;97156.53;;;5.72;83.78
9439;BME280;5176;42.622;25.386;2023-02-23T03:23:16;97153.81;;;5.76;84.34
9439;BME280;5176;42.622;25.386;2023-02-23T03:26:06;97153.84;;;5.74;84.59
9439;BME280;5176;42.622;25.386;2023-02-23T03:29:00;97151.69;;;5.65;84.24
9439;BME280;5176;42.622;25.386;2023-02-23T03:31:51;97160.69;;;5.58;84.24
9439;BME280;5176;42.622;25.386;2023-02-23T03:34:42;97155.91;;;5.49;85.10
9439;BME280;5176;42.622;25.386;2023-02-23T03:37:34;97166.13;;;5.33;85.03
9439;BME280;5176;42.622;25.386;2023-02-23T03:40:26;97160.28;;;5.28;85.06
9439;BME280;5176;42.622;25.386;2023-02-23T03:43:17;97168.41;;;5.20;85.01
9439;BME280;5176;42.622;25.386;2023-02-23T03:46:07;97165.88;;;5.18;84.89
9439;BME280;5176;42.622;25.386;2023-02-23T03:48:58;97161.34;;;5.24;84.87
9439;BME280;5176;42.622;25.386;2023-02-23T03:51:48;97161.13;;;5.08;85.19
9439;BME280;5176;42.622;25.386;2023-02-23T03:54:40;97172.97;;;4.95;85.41
9439;BME280;5176;42.622;25.386;2023-02-23T03:57:30;97148.38;;;4.83;85.66
9439;BME280;5176;42.622;25.386;2023-02-23T04:00:23;97171.03;;;5.00;86.25
9439;BME280;5176;42.622;25.386;2023-02-23T04:03:12;97147.00;;;4.95;84.96
9439;BME280;5176;42.622;25.386;2023-02-23T04:06:00;97165.16;;;4.95;85.27
9439;BME280;5176;42.622;25.386;2023-02-23T04:08:49;97162.47;;;4.98;84.88
9439;BME280;5176;42.622;25.386;2023-02-23T04:11:41;97162.72;;;4.91;85.68
9439;BME280;5176;42.622;25.386;2023-02-23T04:14:37;97160.44;;;4.84;86.14
9439;BME280;5176;42.622;25.386;2023-02-23T04:17:07;97147.84;;;4.75;86.72
9439;BME280;5176;42.622;25.386;2023-02-23T04:19:37;97166.16;;;4.92;85.39
9439;BME280;5176;42.622;25.386;2023-02-23T04:22:06;97158.38;;;4.92;85.02
9439;BME280;5176;42.622;25.386;2023-02-23T04:24:35;97161.44;;;5.02;84.53
9439;BME280;5176;42.622;25.386;2023-02-23T04:27:04;97133.38;;;4.89;83.59
9439;BME280;5176;42.622;25.386;2023-02-23T04:29:34;97165.00;;;4.99;84.24
9439;BME280;5176;42.622;25.386;2023-02-23T04:32:04;97159.28;;;4.91;84.74
9439;BME280;5176;42.622;25.386;2023-02-23T04:34:33;97165.91;;;4.98;85.06
9439;BME280;5176;42.622;25.386;2023-02-23T04:37:03;97141.53;;;4.80;84.31
9439;BME280;5176;42.622;25.386;2023-02-23T04:39:32;97166.03;;;4.95;84.00
9439;BME280;5176;42.622;25.386;2023-02-23T04:42:02;97150.75;;;4.87;83.54
9439;BME280;5176;42.622;25.386;2023-02-23T04:44:31;97150.50;;;4.93;82.44
9439;BME280;5176;42.622;25.386;2023-02-23T04:47:00;97165.00;;;4.99;82.10
9439;BME280;5176;42.622;25.386;2023-02-23T04:49:29;97169.28;;;5.00;82.27
9439;BME280;5176;42.622;25.386;2023-02-23T04:51:58;97172.97;;;4.95;81.36
9439;BME280;5176;42.622;25.386;2023-02-23T04:54:29;97169.34;;;4.99;81.43
9439;BME280;5176;42.622;25.386;2023-02-23T04:56:58;97167.25;;;5.07;80.76
9439;BME280;5176;42.622;25.386;2023-02-23T04:59:28;97173.38;;;5.06;79.65
9439;BME280;5176;42.622;25.386;2023-02-23T05:01:56;97173.63;;;5.00;78.53
9439;BME280;5176;42.622;25.386;2023-02-23T05:04:25;97166.81;;;4.97;78.00
9439;BME280;5176;42.622;25.386;2023-02-23T05:06:54;97173.09;;;4.91;78.19
9439;BME280;5176;42.622;25.386;2023-02-23T05:09:23;97180.97;;;4.90;77.89
9439;BME280;5176;42.622;25.386;2023-02-23T05:11:54;97182.00;;;4.86;77.21
9439;BME280;5176;42.622;25.386;2023-02-23T05:14:23;97179.41;;;4.86;76.41
9439;BME280;5176;42.622;25.386;2023-02-23T05:16:52;97182.97;;;4.83;76.61
9439;BME280;5176;42.622;25.386;2023-02-23T05:19:21;97165.50;;;4.67;76.77
9439;BME280;5176;42.622;25.386;2023-02-23T05:21:50;97192.91;;;4.74;77.63
9439;BME280;5176;42.622;25.386;2023-02-23T05:24:19;97181.22;;;4.63;78.51
9439;BME280;5176;42.622;25.386;2023-02-23T05:26:48;97193.88;;;4.71;78.68
9439;BME280;5176;42.622;25.386;2023-02-23T05:29:19;97192.13;;;4.72;79.27
9439;BME280;5176;42.622;25.386;2023-02-23T05:31:47;97199.06;;;4.71;79.79
9439;BME280;5176;42.622;25.386;2023-02-23T05:34:16;97205.28;;;4.67;84.13
9439;BME280;5176;42.622;25.386;2023-02-23T05:36:45;97218.22;;;4.69;86.51
9439;BME280;5176;42.622;25.386;2023-02-23T05:39:14;97187.81;;;4.50;87.60
9439;BME280;5176;42.622;25.386;2023-02-23T05:41:43;97220.53;;;4.75;87.60
9439;BME280;5176;42.622;25.386;2023-02-23T05:44:12;97228.22;;;4.78;88.50
9439;BME280;5176;42.622;25.386;2023-02-23T05:46:44;97228.03;;;4.82;88.63
9439;BME280;5176;42.622;25.386;2023-02-23T05:49:13;97217.06;;;4.76;88.88
9439;BME280;5176;42.622;25.386;2023-02-23T05:51:42;97227.69;;;4.70;90.15
9439;BME280;5176;42.622;25.386;2023-02-23T05:54:11;97237.88;;;4.74;90.71
9439;BME280;5176;42.622;25.386;2023-02-23T05:56:41;97240.06;;;4.85;90.53
9439;BME280;5176;42.622;25.386;2023-02-23T05:59:09;97249.94;;;4.97;89.92
9439;BME280;5176;42.622;25.386;2023-02-23T06:01:39;97250.53;;;5.04;89.37
9439;BME280;5176;42.622;25.386;2023-02-23T06:04:09;97251.56;;;5.20;89.39
9439;BME280;5176;42.622;25.386;2023-02-23T06:06:38;97257.03;;;5.34;88.12
9439;BME280;5176;42.622;25.386;2023-02-23T06:09:07;97254.16;;;5.40;87.56
9439;BME280;5176;42.622;25.386;2023-02-23T06:11:36;97254.50;;;5.53;86.86
9439;BME280;5176;42.622;25.386;2023-02-23T06:14:04;97236.44;;;5.50;87.03
9439;BME280;5176;42.622;25.386;2023-02-23T06:16:33;97251.63;;;5.59;86.74
9439;BME280;5176;42.622;25.386;2023-02-23T06:19:03;97258.13;;;5.69;86.61
9439;BME280;5176;42.622;25.386;2023-02-23T06:21:34;97256.31;;;5.90;85.04
9439;BME280;5176;42.622;25.386;2023-02-23T06:24:04;97263.03;;;6.15;84.48
9439;BME280;5176;42.622;25.386;2023-02-23T06:26:33;97270.94;;;6.32;83.05
9439;BME280;5176;42.622;25.386;2023-02-23T06:29:02;97264.38;;;6.42;82.85
9439;BME280;5176;42.622;25.386;2023-02-23T06:31:32;97259.50;;;6.53;82.06
9439;BME280;5176;42.622;25.386;2023-02-23T06:34:01;97264.75;;;6.71;80.84
9439;BME280;5176;42.622;25.386;2023-02-23T06:36:30;97277.75;;;6.90;80.56
9439;BME280;5176;42.622;25.386;2023-02-23T06:39:02;97261.13;;;6.92;80.07
9439;BME280;5176;42.622;25.386;2023-02-23T06:41:32;97275.69;;;7.14;79.23
9439;BME280;5176;42.622;25.386;2023-02-23T06:44:02;97275.41;;;7.37;78.32
9439;BME280;5176;42.622;25.386;2023-02-23T06:46:31;97271.56;;;7.27;79.06
9439;BME280;5176;42.622;25.386;2023-02-23T06:49:02;97280.38;;;7.42;79.45
9439;BME280;5176;42.622;25.386;2023-02-23T06:51:31;97281.59;;;7.52;79.75
9439;BME280;5176;42.622;25.386;2023-02-23T06:54:02;97278.81;;;7.72;79.40
9439;BME280;5176;42.622;25.386;2023-02-23T06:56:30;97265.06;;;7.86;78.67
9439;BME280;5176;42.622;25.386;2023-02-23T06:58:59;97225.56;;;7.92;78.17
9439;BME280;5176;42.622;25.386;2023-02-23T07:01:28;97282.34;;;8.53;75.64
9439;BME280;5176;42.622;25.386;2023-02-23T07:03:57;97278.22;;;8.81;73.90
9439;BME280;5176;42.622;25.386;2023-02-23T07:06:27;97277.09;;;9.00;73.36
9439;BME280;5176;42.622;25.386;2023-02-23T07:08:57;97284.53;;;9.22;72.13
9439;BME280;5176;42.622;25.386;2023-02-23T07:11:28;97276.94;;;9.48;71.25
9439;BME280;5176;42.622;25.386;2023-02-23T07:13:57;97277.81;;;9.63;70.18
9439;BME280;5176;42.622;25.386;2023-02-23T07:16:27;97277.75;;;9.78;69.23
9439;BME280;5176;42.622;25.386;2023-02-23T07:18:56;97271.69;;;9.78;68.83
9439;BME280;5176;42.622;25.386;2023-02-23T07:21:26;97256.81;;;9.78;68.57
9439;BME280;5176;42.622;25.386;2023-02-23T07:23:55;97282.44;;;10.02;68.53
9439;BME280;5176;42.622;25.386;2023-02-23T07:26:25;97270.47;;;9.98;67.88
9439;BME280;5176;42.622;25.386;2023-02-23T07:28:55;97279.81;;;10.16;67.85
9439;BME280;5176;42.622;25.386;2023-02-23T07:31:24;97285.53;;;10.23;67.28
9439;BME280;5176;42.622;25.386;2023-02-23T07:33:54;97246.34;;;10.07;66.83
9439;BME280;5176;42.622;25.386;2023-02-23T07:36:23;97279.69;;;10.60;65.61
9439;BME280;5176;42.622;25.386;2023-02-23T07:38:52;97202.47;;;10.10;64.54
9439;BME280;5176;42.622;25.386;2023-02-23T07:41:22;97278.78;;;10.88;64.15
9439;BME280;5176;42.622;25.386;2023-02-23T07:43:51;97278.25;;;11.23;62.61
9439;BME280;5176;42.622;25.386;2023-02-23T07:46:21;97287.88;;;11.37;61.45
9439;BME280;5176;42.622;25.386;2023-02-23T07:48:50;97282.00;;;11.46;60.65
9439;BME280;5176;42.622;25.386;2023-02-23T07:51:19;97284.75;;;11.70;59.31
9439;BME280;5176;42.622;25.386;2023-02-23T07:53:49;97288.88;;;11.74;59.87
9439;BME280;5176;42.622;25.386;2023-02-23T07:56:18;97281.69;;;11.90;59.29
9439;BME280;5176;42.622;25.386;2023-02-23T07:58:47;97291.84;;;12.08;58.62
9439;BME280;5176;42.622;25.386;2023-02-23T08:01:15;97291.44;;;12.01;58.95
9439;BME280;5176;42.622;25.386;2023-02-23T08:03:46;97300.78;;;12.18;58.32
9439;BME280;5176;42.622;25.386;2023-02-23T08:06:17;97300.78;;;12.18;58.75
9439;BME280;5176;42.622;25.386;2023-02-23T08:08:46;97300.03;;;12.28;58.06
9439;BME280;5176;42.622;25.386;2023-02-23T08:11:15;97250.22;;;12.14;57.24
9439;BME280;5176;42.622;25.386;2023-02-23T08:13:44;97298.44;;;12.51;57.21
9439;BME280;5176;42.622;25.386;2023-02-23T08:16:13;97293.00;;;12.78;56.56
9439;BME280;5176;42.622;25.386;2023-02-23T08:18:43;97280.78;;;12.28;57.00
9439;BME280;5176;42.622;25.386;2023-02-23T08:21:14;97297.53;;;12.27;58.31
9439;BME280;5176;42.622;25.386;2023-02-23T08:23:42;97300.31;;;12.49;57.34
9439;BME280;5176;42.622;25.386;2023-02-23T08:26:11;97295.56;;;12.54;57.34
9439;BME280;5176;42.622;25.386;2023-02-23T08:28:39;97300.38;;;12.73;57.74
9439;BME280;5176;42.622;25.386;2023-02-23T08:31:12;97290.88;;;13.07;56.09
9439;BME280;5176;42.622;25.386;2023-02-23T08:33:42;97299.75;;;13.30;54.69
9439;BME280;5176;42.622;25.386;2023-02-23T08:36:11;97305.31;;;13.39;54.29
9439;BME280;5176;42.622;25.386;2023-02-23T08:38:41;97303.53;;;13.50;54.15
9439;BME280;5176;42.622;25.386;2023-02-23T08:41:10;97289.31;;;13.53;54.47
9439;BME280;5176;42.622;25.386;2023-02-23T08:43:40;97294.84;;;13.61;53.29
9439;BME280;5176;42.622;25.386;2023-02-23T08:46:09;97291.63;;;13.69;53.15
9439;BME280;5176;42.622;25.386;2023-02-23T08:48:38;97244.84;;;13.13;53.36
9439;BME280;5176;42.622;25.386;2023-02-23T08:51:07;97304.91;;;13.67;53.61
9439;BME280;5176;42.622;25.386;2023-02-23T08:53:36;97301.97;;;13.83;53.43
9439;BME280;5176;42.622;25.386;2023-02-23T08:56:07;97296.38;;;13.99;52.57
9439;BME280;5176;42.622;25.386;2023-02-23T08:58:36;97300.34;;;14.04;51.84
9439;BME280;5176;42.622;25.386;2023-02-23T09:01:06;97306.31;;;14.17;50.92
9439;BME280;5176;42.622;25.386;2023-02-23T09:03:35;97280.81;;;14.07;51.37
9439;BME280;5176;42.622;25.386;2023-02-23T09:06:07;97302.06;;;14.50;50.71
9439;BME280;5176;42.622;25.386;2023-02-23T09:08:36;97298.00;;;14.46;49.03
9439;BME280;5176;42.622;25.386;2023-02-23T09:11:07;97297.25;;;14.33;50.00
9439;BME280;5176;42.622;25.386;2023-02-23T09:13:36;97293.31;;;14.50;49.50
9439;BME280;5176;42.622;25.386;2023-02-23T09:16:06;97297.84;;;14.70;49.01
9439;BME280;5176;42.622;25.386;2023-02-23T09:18:35;97288.16;;;14.48;49.16
9439;BME280;5176;42.622;25.386;2023-02-23T09:21:05;97296.50;;;14.42;49.36
9439;BME280;5176;42.622;25.386;2023-02-23T09:23:34;97300.13;;;14.63;49.62
9439;BME280;5176;42.622;25.386;2023-02-23T09:26:04;97308.13;;;14.84;48.95
9439;BME280;5176;42.622;25.386;2023-02-23T09:28:36;97302.00;;;14.95;48.74
9439;BME280;5176;42.622;25.386;2023-02-23T09:31:08;97299.38;;;14.95;48.49
9439;BME280;5176;42.622;25.386;2023-02-23T09:33:38;97226.53;;;14.49;48.97
9439;BME280;5176;42.622;25.386;2023-02-23T09:36:07;97301.66;;;14.99;48.05
9439;BME280;5176;42.622;25.386;2023-02-23T09:38:39;97292.50;;;15.04;48.35
9439;BME280;5176;42.622;25.386;2023-02-23T09:44:14;97292.34;;;15.16;47.89
9439;BME280;5176;42.622;25.386;2023-02-23T09:46:50;97294.16;;;15.48;46.73
9439;BME280;5176;42.622;25.386;2023-02-23T09:49:28;97294.75;;;15.51;46.92
9439;BME280;5176;42.622;25.386;2023-02-23T09:52:00;97286.84;;;15.08;47.27
9439;BME280;5176;42.622;25.386;2023-02-23T09:54:32;97285.69;;;15.33;47.72
9439;BME280;5176;42.622;25.386;2023-02-23T09:57:09;97298.63;;;15.36;47.23
9439;BME280;5176;42.622;25.386;2023-02-23T09:59:41;97289.03;;;15.35;47.04
9439;BME280;5176;42.622;25.386;2023-02-23T10:02:21;97274.03;;;15.36;47.36
9439;BME280;5176;42.622;25.386;2023-02-23T10:04:53;97280.09;;;15.47;46.75
9439;BME280;5176;42.622;25.386;2023-02-23T10:07:29;97281.91;;;15.79;46.77
9439;BME280;5176;42.622;25.386;2023-02-23T10:10:14;97271.00;;;15.72;46.16
9439;BME280;5176;42.622;25.386;2023-02-23T10:12:55;97282.41;;;15.94;46.16
9439;BME280;5176;42.622;25.386;2023-02-23T10:15:35;97275.41;;;16.14;45.57
9439;BME280;5176;42.622;25.386;2023-02-23T10:18:17;97272.19;;;16.10;45.67
9439;BME280;5176;42.622;25.386;2023-02-23T10:20:53;97275.09;;;16.07;46.22
9439;BME280;5176;42.622;25.386;2023-02-23T10:23:29;97271.56;;;15.97;45.98
9439;BME280;5176;42.622;25.386;2023-02-23T10:26:01;97268.41;;;15.82;46.09
9439;BME280;5176;42.622;25.386;2023-02-23T10:28:35;97269.06;;;15.95;46.65
9439;BME280;5176;42.622;25.386;2023-02-23T10:31:22;97269.31;;;15.92;46.09
9439;BME280;5176;42.622;25.386;2023-02-23T10:33:55;97261.19;;;16.05;46.17
9439;BME280;5176;42.622;25.386;2023-02-23T10:36:32;97257.38;;;16.19;45.57
9439;BME280;5176;42.622;25.386;2023-02-23T10:39:21;97251.59;;;15.83;46.62
9439;BME280;5176;42.622;25.386;2023-02-23T10:41:52;97245.72;;;16.00;46.08
9439;BME280;5176;42.622;25.386;2023-02-23T10:44:24;97259.44;;;15.94;46.68
9439;BME280;5176;42.622;25.386;2023-02-23T10:46:58;97249.34;;;15.99;46.91
9439;BME280;5176;42.622;25.386;2023-02-23T10:49:34;97243.31;;;15.97;46.56
9439;BME280;5176;42.622;25.386;2023-02-23T10:52:10;97249.19;;;16.01;46.79
9439;BME280;5176;42.622;25.386;2023-02-23T10:54:42;97254.50;;;16.11;46.23
9439;BME280;5176;42.622;25.386;2023-02-23T10:57:21;97243.84;;;15.91;47.05
9439;BME280;5176;42.622;25.386;2023-02-23T11:00:05;97247.34;;;16.22;46.75
9439;BME280;5176;42.622;25.386;2023-02-23T11:02:36;97186.75;;;15.58;46.78
9439;BME280;5176;42.622;25.386;2023-02-23T11:05:05;97243.53;;;15.85;47.03
9439;BME280;5176;42.622;25.386;2023-02-23T11:07:34;97238.19;;;15.75;47.29
9439;BME280;5176;42.622;25.386;2023-02-23T11:10:22;97244.63;;;15.82;47.31
9439;BME280;5176;42.622;25.386;2023-02-23T11:12:53;97242.22;;;16.00;46.92
9439;BME280;5176;42.622;25.386;2023-02-23T11:15:27;97227.38;;;16.08;46.51
9439;BME280;5176;42.622;25.386;2023-02-23T11:17:59;97235.94;;;16.31;46.41
9439;BME280;5176;42.622;25.386;2023-02-23T11:20:32;97215.22;;;16.27;46.54
9439;BME280;5176;42.622;25.386;2023-02-23T11:23:08;97237.41;;;16.45;46.74
9439;BME280;5176;42.622;25.386;2023-02-23T11:25:44;97241.41;;;16.70;46.11
9439;BME280;5176;42.622;25.386;2023-02-23T11:28:16;97231.66;;;16.71;46.20
9439;BME280;5176;42.622;25.386;2023-02-23T11:30:47;97207.97;;;16.29;46.41
9439;BME280;5176;42.622;25.386;2023-02-23T11:33:27;97237.59;;;16.63;46.65
9439;BME280;5176;42.622;25.386;2023-02-23T11:36:16;97235.03;;;16.82;45.87
9439;BME280;5176;42.622;25.386;2023-02-23T11:38:47;97221.09;;;16.80;46.07
9439;BME280;5176;42.622;25.386;2023-02-23T11:41:23;97231.41;;;16.83;45.78
9439;BME280;5176;42.622;25.386;2023-02-23T11:43:57;97241.25;;;16.72;46.47
9439;BME280;5176;42.622;25.386;2023-02-23T11:46:27;97236.31;;;16.48;47.11
9439;BME280;5176;42.622;25.386;2023-02-23T11:49:02;97240.09;;;16.65;46.66
9439;BME280;5176;42.622;25.386;2023-02-23T11:51:33;97233.66;;;16.57;46.75
9439;BME280;5176;42.622;25.386;2023-02-23T11:54:04;97231.72;;;16.50;47.37
9439;BME280;5176;42.622;25.386;2023-02-23T11:56:36;97246.28;;;16.34;48.15
9439;BME280;5176;42.622;25.386;2023-02-23T11:59:06;97242.88;;;16.23;48.25
9439;BME280;5176;42.622;25.386;2023-02-23T12:01:45;97241.72;;;16.06;48.99
9439;BME280;5176;42.622;25.386;2023-02-23T12:04:28;97235.91;;;15.91;49.44
9439;BME280;5176;42.622;25.386;2023-02-23T12:07:26;97239.72;;;15.77;49.75
9439;BME280;5176;42.622;25.386;2023-02-23T12:10:06;97211.13;;;15.62;49.89
9439;BME280;5176;42.622;25.386;2023-02-23T12:12:45;97239.63;;;15.79;50.03
9439;BME280;5176;42.622;25.386;2023-02-23T12:15:23;97205.13;;;15.60;50.40
9439;BME280;5176;42.622;25.386;2023-02-23T12:17:57;97227.28;;;15.68;50.80
9439;BME280;5176;42.622;25.386;2023-02-23T12:20:31;97222.72;;;15.70;50.66
9439;BME280;5176;42.622;25.386;2023-02-23T12:23:06;97235.91;;;15.49;51.10
9439;BME280;5176;42.622;25.386;2023-02-23T12:25:41;97236.31;;;15.45;51.63
9439;BME280;5176;42.622;25.386;2023-02-23T12:28:17;97240.34;;;15.49;51.67
9439;BME280;5176;42.622;25.386;2023-02-23T12:30:50;97235.69;;;15.73;51.26
9439;BME280;5176;42.622;25.386;2023-02-23T12:33:25;97240.50;;;15.68;50.87
9439;BME280;5176;42.622;25.386;2023-02-23T12:36:05;97235.00;;;15.60;51.18
9439;BME280;5176;42.622;25.386;2023-02-23T12:38:47;97222.44;;;15.52;51.02
9439;BME280;5176;42.622;25.386;2023-02-23T12:41:20;97225.97;;;15.42;51.49
9439;BME280;5176;42.622;25.386;2023-02-23T12:43:58;97243.53;;;15.64;51.21
9439;BME280;5176;42.622;25.386;2023-02-23T12:46:33;97253.94;;;15.44;51.71
9439;BME280;5176;42.622;25.386;2023-02-23T12:49:09;97255.38;;;15.48;51.75
9439;BME280;5176;42.622;25.386;2023-02-23T12:51:44;97261.00;;;15.23;51.69
9439;BME280;5176;42.622;25.386;2023-02-23T12:54:17;97253.69;;;14.83;53.34
9439;BME280;5176;42.622;25.386;2023-02-23T12:56:52;97255.94;;;14.99;53.44
9439;BME280;5176;42.622;25.386;2023-02-23T12:59:57;97261.88;;;14.69;54.81
9439;BME280;5176;42.622;25.386;2023-02-23T13:03:05;97261.78;;;14.59;54.81
9439;BME280;5176;42.622;25.386;2023-02-23T13:05:40;97266.91;;;14.72;54.54
9439;BME280;5176;42.622;25.386;2023-02-23T13:08:19;97260.56;;;14.63;54.75
9439;BME280;5176;42.622;25.386;2023-02-23T13:10:56;97224.00;;;14.48;54.37
9439;BME280;5176;42.622;25.386;2023-02-23T13:13:32;97215.38;;;14.45;53.72
9439;BME280;5176;42.622;25.386;2023-02-23T13:16:11;97265.94;;;14.73;54.09
9439;BME280;5176;42.622;25.386;2023-02-23T13:18:46;97269.09;;;14.56;54.44
9439;BME280;5176;42.622;25.386;2023-02-23T13:21:23;97182.09;;;13.88;55.30
9439;BME280;5176;42.622;25.386;2023-02-23T13:24:00;97273.16;;;14.49;55.79
9439;BME280;5176;42.622;25.386;2023-02-23T13:26:39;97263.94;;;14.32;54.97
9439;BME280;5176;42.622;25.386;2023-02-23T13:29:24;97243.41;;;14.24;55.69
9439;BME280;5176;42.622;25.386;2023-02-23T13:31:59;97266.81;;;14.51;55.31
9439;BME280;5176;42.622;25.386;2023-02-23T13:34:32;97269.31;;;14.64;55.03
9439;BME280;5176;42.622;25.386;2023-02-23T13:37:04;97267.28;;;14.56;55.03
9439;BME280;5176;42.622;25.386;2023-02-23T13:42:44;97271.44;;;14.92;53.36
9439;BME280;5176;42.622;25.386;2023-02-23T13:45:29;97276.72;;;14.81;54.36
9439;BME280;5176;42.622;25.386;2023-02-23T13:48:04;97275.53;;;14.85;53.64
9439;BME280;5176;42.622;25.386;2023-02-23T13:50:41;97281.31;;;14.57;54.82
9439;BME280;5176;42.622;25.386;2023-02-23T13:53:31;97276.72;;;14.36;55.80
9439;BME280;5176;42.622;25.386;2023-02-23T13:56:03;97282.97;;;14.24;56.53
9439;BME280;5176;42.622;25.386;2023-02-23T13:58:36;97283.09;;;14.11;57.42
9439;BME280;5176;42.622;25.386;2023-02-23T14:01:15;97283.34;;;14.20;57.61
9439;BME280;5176;42.622;25.386;2023-02-23T14:03:52;97280.91;;;14.16;57.70
9439;BME280;5176;42.622;25.386;2023-02-23T14:06:23;97278.03;;;13.86;58.88
9439;BME280;5176;42.622;25.386;2023-02-23T14:09:33;97289.78;;;13.47;60.83
9439;BME280;5176;42.622;25.386;2023-02-23T14:12:10;97294.47;;;13.30;61.54